createdAt,value
2023-02-20T00:01:54.374Z,5.97
2023-02-20T00:04:11.191Z,5.91
2023-02-20T00:06:28.885Z,5.87
2023-02-20T00:08:45.740Z,5.77
2023-02-20T00:11:02.100Z,5.69
2023-02-20T00:13:18.519Z,5.61
2023-02-20T00:15:35.172Z,5.57
2023-02-20T00:17:51.692Z,5.50
2023-02-20T00:20:08.204Z,5.48
2023-02-20T00:22:27.538Z,5.41
2023-02-20T00:24:43.964Z,5.33
2023-02-20T00:27:00.783Z,5.33
2023-02-20T00:29:17.362Z,5.29
2023-02-20T00:31:33.863Z,5.27
2023-02-20T00:33:50.361Z,5.23
2023-02-20T00:36:06.712Z,5.26
2023-02-20T00:38:23.137Z,5.19
2023-02-20T00:40:39.789Z,5.16
2023-02-20T00:42:56.195Z,5.12
2023-02-20T00:45:12.574Z,5.05
2023-02-20T00:47:29.221Z,4.98
2023-02-20T00:49:45.918Z,4.94
2023-02-20T00:52:02.635Z,4.93
2023-02-20T00:54:19.424Z,4.90
2023-02-20T00:56:35.943Z,4.87
2023-02-20T00:58:52.683Z,4.80
2023-02-20T01:01:09.117Z,4.73
2023-02-20T01:03:25.432Z,4.63
2023-02-20T01:05:42.366Z,4.59
2023-02-20T01:07:59.171Z,4.57
2023-02-20T01:10:15.405Z,4.55
2023-02-20T01:12:31.943Z,4.49
2023-02-20T01:14:48.684Z,4.45
2023-02-20T01:17:05.436Z,4.43
2023-02-20T01:19:21.894Z,4.43
2023-02-20T01:21:38.658Z,4.39
2023-02-20T01:23:55.145Z,4.36
2023-02-20T01:26:11.813Z,4.34
2023-02-20T01:28:28.505Z,4.28
2023-02-20T01:30:44.968Z,4.25
2023-02-20T01:33:01.311Z,4.22
2023-02-20T01:35:17.773Z,4.19
2023-02-20T01:37:34.272Z,4.13
2023-02-20T01:39:50.572Z,4.08
2023-02-20T01:42:06.875Z,4.01
2023-02-20T01:44:23.355Z,3.98
2023-02-20T01:46:39.923Z,3.98
2023-02-20T01:48:56.480Z,3.92
2023-02-20T01:51:12.877Z,3.90
2023-02-20T01:53:29.330Z,3.90
2023-02-20T01:55:45.765Z,3.90
2023-02-20T01:58:02.115Z,3.92
2023-02-20T02:00:18.371Z,3.84
2023-02-20T02:02:35.017Z,3.76
2023-02-20T02:04:51.373Z,3.71
2023-02-20T02:07:08.104Z,3.66
2023-02-20T02:09:24.635Z,3.61
2023-02-20T02:11:41.103Z,3.61
2023-02-20T02:13:57.458Z,3.61
2023-02-20T02:16:14.112Z,3.60
2023-02-20T02:18:30.609Z,3.59
2023-02-20T02:20:46.932Z,3.53
2023-02-20T02:23:03.379Z,3.45
2023-02-20T02:25:20.093Z,3.36
2023-02-20T02:27:36.506Z,3.30
2023-02-20T02:29:52.960Z,3.28
2023-02-20T02:32:09.470Z,3.26
2023-02-20T02:34:25.850Z,3.21
2023-02-20T02:36:42.278Z,3.20
2023-02-20T02:38:58.609Z,3.18
2023-02-20T02:41:15.170Z,3.16
2023-02-20T02:43:31.872Z,3.17
2023-02-20T02:45:48.267Z,3.14
2023-02-20T02:48:04.611Z,3.09
2023-02-20T02:50:21.016Z,3.07
2023-02-20T02:52:37.500Z,3.08
2023-02-20T02:54:53.896Z,3.04
2023-02-20T02:57:10.236Z,3.00
2023-02-20T02:59:26.501Z,2.99
2023-02-20T03:01:42.962Z,2.97
2023-02-20T03:03:59.392Z,2.96
2023-02-20T03:06:15.726Z,2.94
2023-02-20T03:08:32.057Z,2.91
2023-02-20T03:10:48.409Z,2.89
2023-02-20T03:13:04.755Z,2.88
2023-02-20T03:15:21.491Z,2.87
2023-02-20T03:17:37.891Z,2.82
2023-02-20T03:19:54.570Z,2.82
2023-02-20T03:22:10.977Z,2.74
2023-02-20T03:24:27.419Z,2.71
2023-02-20T03:26:44.149Z,2.69
2023-02-20T03:29:00.952Z,2.72
2023-02-20T03:31:17.464Z,2.72
2023-02-20T03:33:33.946Z,2.70
2023-02-20T03:35:50.294Z,2.72
2023-02-20T03:38:07.010Z,2.71
2023-02-20T03:40:23.546Z,2.66
2023-02-20T03:42:40.032Z,2.65
2023-02-20T03:44:56.394Z,2.61
2023-02-20T03:47:13.118Z,2.57
2023-02-20T03:49:29.650Z,2.55
2023-02-20T03:51:46.328Z,2.57
2023-02-20T03:54:02.742Z,2.50
2023-02-20T03:56:19.059Z,2.44
2023-02-20T03:58:35.602Z,2.44
2023-02-20T04:00:52.013Z,2.46
2023-02-20T04:03:08.399Z,2.44
2023-02-20T04:05:25.135Z,2.42
2023-02-20T04:07:41.615Z,2.40
2023-02-20T04:09:58.103Z,2.39
2023-02-20T04:12:14.566Z,2.37
2023-02-20T04:14:30.908Z,2.35
2023-02-20T04:16:47.401Z,2.32
2023-02-20T04:19:03.675Z,2.24
2023-02-20T04:21:20.050Z,2.20
2023-02-20T04:23:36.545Z,2.18
2023-02-20T04:25:52.990Z,2.18
2023-02-20T04:28:09.353Z,2.17
2023-02-20T04:30:25.849Z,2.15
2023-02-20T04:32:42.556Z,2.13
2023-02-20T04:34:59.040Z,2.07
2023-02-20T04:37:15.375Z,2.04
2023-02-20T04:39:31.713Z,2.05
2023-02-20T04:41:48.170Z,2.09
2023-02-20T04:44:04.451Z,2.08
2023-02-20T04:46:20.875Z,2.02
2023-02-20T04:48:37.344Z,1.97
2023-02-20T04:50:53.698Z,1.98
2023-02-20T04:53:10.032Z,1.92
2023-02-20T04:55:26.698Z,1.92
2023-02-20T04:57:43.431Z,1.92
2023-02-20T04:59:59.852Z,1.96
2023-02-20T05:02:16.318Z,1.96
2023-02-20T05:04:32.664Z,1.93
2023-02-20T05:06:49.104Z,1.94
2023-02-20T05:09:05.575Z,1.92
2023-02-20T05:11:21.892Z,1.86
2023-02-20T05:13:38.345Z,1.83
2023-02-20T05:15:55.137Z,1.75
2023-02-20T05:18:11.473Z,1.71
2023-02-20T05:20:27.924Z,1.70
2023-02-20T05:22:44.349Z,1.70
2023-02-20T05:25:00.752Z,1.73
2023-02-20T05:27:17.455Z,1.74
2023-02-20T05:29:33.860Z,1.69
2023-02-20T05:31:50.480Z,1.65
2023-02-20T05:34:07.010Z,1.58
2023-02-20T05:36:23.699Z,1.58
2023-02-20T05:38:40.074Z,1.53
2023-02-20T05:40:56.604Z,1.55
2023-02-20T05:43:13.083Z,1.57
2023-02-20T05:45:29.411Z,1.52
2023-02-20T05:47:45.826Z,1.51
2023-02-20T05:50:02.496Z,1.53
2023-02-20T05:52:19.144Z,1.53
2023-02-20T05:54:35.935Z,1.50
2023-02-20T05:56:52.370Z,1.50
2023-02-20T05:59:08.662Z,1.48
2023-02-20T06:01:25.096Z,1.45
2023-02-20T06:03:41.571Z,1.45
2023-02-20T06:05:57.817Z,1.44
2023-02-20T06:08:14.516Z,1.45
2023-02-20T06:10:30.906Z,1.42
2023-02-20T06:12:47.662Z,1.40
2023-02-20T06:15:03.969Z,1.41
2023-02-20T06:17:20.365Z,1.43
2023-02-20T06:19:36.608Z,1.42
2023-02-20T06:21:53.560Z,1.43
2023-02-20T06:24:10.323Z,1.42
2023-02-20T06:26:26.755Z,1.42
2023-02-20T06:28:43.221Z,1.40
2023-02-20T06:31:01.765Z,1.35
2023-02-20T06:33:18.420Z,1.27
2023-02-20T06:35:35.028Z,1.24
2023-02-20T06:37:51.753Z,1.22
2023-02-20T06:40:08.215Z,1.22
2023-02-20T06:42:24.545Z,1.20
2023-02-20T06:44:41.164Z,1.20
2023-02-20T06:46:57.945Z,1.20
2023-02-20T06:49:14.342Z,1.21
2023-02-20T06:51:31.102Z,1.22
2023-02-20T06:56:20.913Z,1.26
2023-02-20T06:58:37.188Z,1.29
2023-02-20T07:00:53.882Z,1.29
2023-02-20T07:03:10.555Z,1.29
2023-02-20T07:05:27.257Z,1.35
2023-02-20T07:07:43.775Z,1.37
2023-02-20T07:10:00.182Z,1.37
2023-02-20T07:12:16.681Z,1.38
2023-02-20T07:14:33.405Z,1.41
2023-02-20T07:16:50.200Z,1.46
2023-02-20T07:19:06.922Z,1.54
2023-02-20T07:21:24.314Z,1.57
2023-02-20T07:23:40.636Z,1.59
2023-02-20T07:25:57.420Z,1.65
2023-02-20T07:28:14.133Z,1.69
2023-02-20T07:30:31.088Z,1.75
2023-02-20T07:32:47.649Z,1.79
2023-02-20T07:35:08.176Z,1.84
2023-02-20T07:37:25.688Z,1.89
2023-02-20T07:39:42.153Z,1.90
2023-02-20T07:41:58.483Z,1.93
2023-02-20T07:44:15.126Z,1.94
2023-02-20T07:46:31.784Z,2.01
2023-02-20T07:48:48.217Z,2.04
2023-02-20T07:51:04.600Z,2.07
2023-02-20T07:53:21.263Z,2.09
2023-02-20T07:55:37.617Z,2.14
2023-02-20T07:57:53.977Z,2.16
2023-02-20T08:00:10.431Z,2.14
2023-02-20T08:02:26.914Z,2.17
2023-02-20T08:04:43.604Z,2.17
2023-02-20T08:06:59.939Z,2.17
2023-02-20T08:09:16.376Z,2.23
2023-02-20T08:11:32.707Z,2.26
2023-02-20T08:13:49.122Z,2.31
2023-02-20T08:16:05.670Z,2.45
2023-02-20T08:18:23.990Z,2.56
2023-02-20T08:20:40.807Z,2.73
2023-02-20T08:22:57.236Z,2.91
2023-02-20T08:25:13.715Z,3.05
2023-02-20T08:27:30.018Z,3.29
2023-02-20T08:29:46.747Z,3.52
2023-02-20T08:32:03.507Z,3.98
2023-02-20T08:34:20.006Z,4.40
2023-02-20T08:36:36.328Z,4.74
2023-02-20T08:38:52.698Z,5.05
2023-02-20T08:41:09.113Z,5.33
2023-02-20T08:43:27.877Z,5.58
2023-02-20T08:45:44.701Z,5.77
2023-02-20T08:48:01.464Z,6.00
2023-02-20T08:50:17.753Z,6.17
2023-02-20T08:52:34.268Z,6.37
2023-02-20T08:54:50.737Z,6.56
2023-02-20T08:57:07.187Z,6.61
2023-02-20T08:59:23.843Z,6.78
2023-02-20T09:01:40.391Z,6.88
2023-02-20T09:03:57.143Z,7.09
2023-02-20T09:06:14.065Z,7.25
2023-02-20T09:08:30.930Z,7.42
2023-02-20T09:10:47.510Z,7.56
2023-02-20T09:13:03.854Z,7.80
2023-02-20T09:15:20.607Z,7.91
2023-02-20T09:17:37.038Z,8.02
2023-02-20T09:19:53.393Z,8.12
2023-02-20T09:22:10.121Z,8.33
2023-02-20T09:24:26.846Z,8.47
2023-02-20T09:26:43.188Z,8.61
2023-02-20T09:28:59.661Z,8.76
2023-02-20T09:31:16.103Z,8.89
2023-02-20T09:33:32.482Z,8.96
2023-02-20T09:35:48.891Z,9.23
2023-02-20T09:38:05.595Z,9.24
2023-02-20T09:40:22.066Z,9.32
2023-02-20T09:42:38.764Z,9.49
2023-02-20T09:44:55.252Z,9.70
2023-02-20T09:47:11.732Z,9.75
2023-02-20T09:49:28.229Z,10.03
2023-02-20T09:51:44.715Z,10.03
2023-02-20T09:54:01.521Z,10.01
2023-02-20T09:56:17.951Z,10.12
2023-02-20T09:58:34.325Z,10.12
2023-02-20T10:00:51.122Z,10.27
2023-02-20T10:03:07.727Z,10.40
2023-02-20T10:05:24.081Z,10.58
2023-02-20T10:07:40.813Z,10.78
2023-02-20T10:09:57.266Z,10.84
2023-02-20T10:12:13.684Z,11.03
2023-02-20T10:14:30.354Z,11.11
2023-02-20T10:16:46.728Z,11.22
2023-02-20T10:19:03.478Z,11.32
2023-02-20T10:21:19.910Z,11.33
2023-02-20T10:23:36.675Z,11.44
2023-02-20T10:25:53.326Z,11.55
2023-02-20T10:28:09.652Z,11.60
2023-02-20T10:30:26.010Z,11.59
2023-02-20T10:32:42.675Z,11.81
2023-02-20T10:34:59.122Z,11.80
2023-02-20T10:37:15.906Z,11.79
2023-02-20T10:39:32.310Z,12.02
2023-02-20T10:41:48.765Z,12.05
2023-02-20T10:44:05.101Z,11.80
2023-02-20T10:46:21.676Z,11.99
2023-02-20T10:48:38.366Z,12.27
2023-02-20T10:50:54.681Z,12.33
2023-02-20T10:53:11.343Z,12.27
2023-02-20T10:55:27.780Z,12.54
2023-02-20T10:57:44.031Z,12.71
2023-02-20T11:00:00.762Z,12.57
2023-02-20T11:02:17.268Z,12.65
2023-02-20T11:04:34.094Z,12.69
2023-02-20T11:06:50.410Z,12.74
2023-02-20T11:09:07.088Z,12.91
2023-02-20T11:11:23.528Z,12.78
2023-02-20T11:13:40.054Z,12.93
2023-02-20T11:15:56.434Z,12.74
2023-02-20T11:18:12.839Z,12.80
2023-02-20T11:20:29.284Z,12.63
2023-02-20T11:22:45.722Z,12.81
2023-02-20T11:25:02.447Z,12.86
2023-02-20T11:27:18.758Z,12.78
2023-02-20T11:29:35.215Z,12.99
2023-02-20T11:31:51.890Z,13.00
2023-02-20T11:34:08.644Z,13.14
2023-02-20T11:36:25.022Z,13.27
2023-02-20T11:38:41.762Z,13.28
2023-02-20T11:40:58.181Z,13.35
2023-02-20T11:43:14.909Z,13.36
2023-02-20T11:45:31.363Z,13.43
2023-02-20T11:47:47.677Z,13.53
2023-02-20T11:50:18.135Z,13.50
2023-02-20T11:52:35.168Z,13.52
2023-02-20T11:54:51.597Z,13.49
2023-02-20T11:57:08.356Z,13.65
2023-02-20T11:59:25.066Z,13.60
2023-02-20T12:01:43.316Z,13.52
2023-02-20T12:04:01.423Z,13.47
2023-02-20T12:06:18.112Z,13.30
2023-02-20T12:08:34.577Z,13.49
2023-02-20T12:10:51.237Z,13.55
2023-02-20T12:13:07.714Z,13.73
2023-02-20T12:15:24.381Z,13.79
2023-02-20T12:17:40.727Z,13.86
2023-02-20T12:19:57.407Z,13.75
2023-02-20T12:22:14.160Z,13.75
2023-02-20T12:24:30.592Z,13.86
2023-02-20T12:26:47.108Z,13.90
2023-02-20T12:29:03.779Z,14.03
2023-02-20T12:31:20.691Z,14.16
2023-02-20T12:33:37.100Z,14.04
2023-02-20T12:35:53.557Z,13.94
2023-02-20T12:38:10.219Z,14.23
2023-02-20T12:40:26.500Z,14.38
2023-02-20T12:42:42.934Z,14.51
2023-02-20T12:44:59.270Z,14.46
2023-02-20T12:47:15.736Z,14.56
2023-02-20T12:49:32.133Z,14.34
2023-02-20T12:51:48.897Z,14.06
2023-02-20T12:54:05.255Z,14.13
2023-02-20T12:56:21.762Z,14.19
2023-02-20T12:58:38.218Z,14.12
2023-02-20T13:00:54.513Z,14.25
2023-02-20T13:03:11.041Z,14.30
2023-02-20T13:05:27.708Z,14.32
2023-02-20T13:07:44.032Z,14.35
2023-02-20T13:10:00.368Z,14.41
2023-02-20T13:12:16.681Z,14.48
2023-02-20T13:14:33.155Z,14.46
2023-02-20T13:16:49.843Z,14.30
2023-02-20T13:19:06.291Z,14.38
2023-02-20T13:21:22.816Z,14.38
2023-02-20T13:23:41.820Z,14.44
2023-02-20T13:25:58.455Z,14.44
2023-02-20T13:28:14.950Z,14.49
2023-02-20T13:30:31.471Z,14.60
2023-02-20T13:32:48.110Z,14.36
2023-02-20T13:35:04.608Z,14.41
2023-02-20T13:37:21.080Z,14.31
2023-02-20T13:39:37.471Z,14.32
2023-02-20T13:41:54.211Z,14.27
2023-02-20T13:44:10.795Z,14.24
2023-02-20T13:46:27.479Z,14.40
2023-02-20T13:48:45.241Z,14.33
2023-02-20T13:51:01.637Z,14.36
2023-02-20T13:53:18.074Z,14.26
2023-02-20T13:55:34.448Z,14.13
2023-02-20T13:57:50.831Z,14.09
2023-02-20T14:00:07.604Z,14.02
2023-02-20T14:02:24.329Z,14.10
2023-02-20T14:04:41.060Z,13.95
2023-02-20T14:06:59.097Z,14.00
2023-02-20T14:09:16.114Z,13.99
2023-02-20T14:11:32.572Z,14.00
2023-02-20T14:13:49.078Z,13.81
2023-02-20T14:16:05.451Z,13.88
2023-02-20T14:18:21.950Z,14.01
2023-02-20T14:20:38.466Z,14.01
2023-02-20T14:22:54.980Z,13.99
2023-02-20T14:25:12.417Z,14.10
2023-02-20T14:27:28.731Z,13.99
2023-02-20T14:29:45.115Z,14.05
2023-02-20T14:32:01.663Z,14.03
2023-02-20T14:34:18.436Z,14.03
2023-02-20T14:36:34.885Z,14.03
2023-02-20T14:38:52.619Z,13.88
2023-02-20T14:41:09.298Z,13.95
2023-02-20T14:43:25.781Z,13.91
2023-02-20T14:45:42.280Z,13.94
2023-02-20T14:47:58.980Z,13.91
2023-02-20T14:50:15.302Z,13.89
2023-02-20T14:52:32.029Z,13.85
2023-02-20T14:54:48.545Z,13.97
2023-02-20T14:57:05.298Z,13.86
2023-02-20T14:59:22.036Z,13.79
2023-02-20T15:01:38.573Z,13.97
2023-02-20T15:03:54.951Z,13.90
2023-02-20T15:06:11.617Z,13.92
2023-02-20T15:08:28.330Z,13.78
2023-02-20T15:10:44.701Z,13.66
2023-02-20T15:13:01.245Z,13.73
2023-02-20T15:15:19.413Z,13.85
2023-02-20T15:17:35.889Z,13.63
2023-02-20T15:19:52.441Z,13.63
2023-02-20T15:22:08.972Z,13.68
2023-02-20T15:24:25.321Z,13.72
2023-02-20T15:26:41.641Z,13.69
2023-02-20T15:28:58.524Z,13.71
2023-02-20T15:31:15.300Z,13.53
2023-02-20T15:33:31.738Z,13.44
2023-02-20T15:35:48.280Z,13.33
2023-02-20T15:38:04.829Z,13.32
2023-02-20T15:40:21.343Z,13.33
2023-02-20T15:42:37.709Z,13.16
2023-02-20T15:44:54.370Z,13.16
2023-02-20T15:47:11.107Z,13.08
2023-02-20T15:49:27.580Z,13.03
2023-02-20T15:51:44.242Z,13.18
2023-02-20T15:54:00.935Z,13.14
2023-02-20T15:56:17.576Z,13.04
2023-02-20T15:58:35.599Z,12.92
2023-02-20T16:00:52.102Z,12.85
2023-02-20T16:03:08.621Z,12.71
2023-02-20T16:05:25.101Z,12.58
2023-02-20T16:07:41.442Z,12.53
2023-02-20T16:09:57.847Z,12.49
2023-02-20T16:12:14.405Z,12.42
2023-02-20T16:14:30.754Z,12.31
2023-02-20T16:16:47.547Z,12.16
2023-02-20T16:19:04.288Z,11.98
2023-02-20T16:21:20.844Z,11.83
2023-02-20T16:23:37.600Z,11.89
2023-02-20T16:25:54.068Z,11.81
2023-02-20T16:28:10.791Z,11.69
2023-02-20T16:30:33.170Z,11.67
2023-02-20T16:32:50.473Z,11.70
2023-02-20T16:35:07.028Z,11.61
2023-02-20T16:37:23.542Z,11.50
2023-02-20T16:39:40.032Z,11.43
2023-02-20T16:41:56.786Z,11.30
2023-02-20T16:44:13.287Z,11.25
2023-02-20T16:46:38.326Z,11.17
2023-02-20T16:48:55.415Z,11.08
2023-02-20T16:51:11.909Z,10.92
2023-02-20T16:53:29.649Z,10.92
2023-02-20T16:55:46.011Z,10.81
2023-02-20T16:58:02.365Z,10.71
2023-02-20T17:00:19.056Z,10.54
2023-02-20T17:02:35.525Z,10.40
2023-02-20T17:04:52.359Z,10.18
2023-02-20T17:07:09.307Z,9.99
2023-02-20T17:09:33.874Z,9.77
2023-02-20T17:11:57.277Z,9.60
2023-02-20T17:14:14.518Z,9.41
2023-02-20T17:16:32.121Z,9.32
2023-02-20T17:18:48.619Z,9.25
2023-02-20T17:21:05.059Z,9.15
2023-02-20T17:23:21.487Z,9.01
2023-02-20T17:25:37.891Z,8.87
2023-02-20T17:27:54.341Z,8.81
2023-02-20T17:30:10.704Z,8.75
2023-02-20T17:32:27.062Z,8.57
2023-02-20T17:34:43.632Z,8.49
2023-02-20T17:37:01.381Z,8.42
2023-02-20T17:39:17.909Z,8.28
2023-02-20T17:41:34.633Z,8.23
2023-02-20T17:43:50.936Z,8.18
2023-02-20T17:46:07.609Z,8.10
2023-02-20T17:48:23.931Z,8.00
2023-02-20T17:50:40.292Z,7.90
2023-02-20T17:52:56.653Z,7.85
2023-02-20T17:55:12.985Z,7.78
2023-02-20T17:57:29.278Z,7.69
2023-02-20T17:59:45.588Z,7.71
2023-02-20T18:02:02.565Z,7.61
2023-02-20T18:04:21.028Z,7.50
2023-02-20T18:06:38.096Z,7.43
2023-02-20T18:08:54.460Z,7.35
2023-02-20T18:11:10.787Z,7.36
2023-02-20T18:13:27.202Z,7.27
2023-02-20T18:15:43.904Z,7.23
2023-02-20T18:18:00.332Z,7.18
2023-02-20T18:20:16.971Z,7.11
2023-02-20T18:22:33.332Z,6.99
2023-02-20T18:24:50.727Z,6.98
2023-02-20T18:27:07.176Z,6.90
2023-02-20T18:29:23.630Z,6.80
2023-02-20T18:31:40.065Z,6.79
2023-02-20T18:33:56.803Z,6.73
2023-02-20T18:36:13.141Z,6.65
2023-02-20T18:38:29.521Z,6.64
2023-02-20T18:40:46.281Z,6.58
2023-02-20T18:43:02.937Z,6.52
2023-02-20T18:45:21.758Z,6.43
2023-02-20T18:47:39.760Z,6.45
2023-02-20T18:49:56.512Z,6.50
2023-02-20T18:52:12.921Z,6.43
2023-02-20T18:54:29.159Z,6.50
2023-02-20T18:56:45.847Z,6.43
2023-02-20T18:59:02.322Z,6.37
2023-02-20T19:01:18.797Z,6.39
2023-02-20T19:03:35.117Z,6.34
2023-02-20T19:05:51.826Z,6.34
2023-02-20T19:08:08.590Z,6.31
2023-02-20T19:10:24.930Z,6.22
2023-02-20T19:12:41.904Z,6.28
2023-02-20T19:14:58.251Z,6.20
2023-02-20T19:17:14.657Z,6.20
2023-02-20T19:19:31.401Z,6.18
2023-02-20T19:21:47.800Z,6.15
2023-02-20T19:24:04.126Z,6.12
2023-02-20T19:26:20.632Z,6.14
2023-02-20T19:28:37.060Z,6.09
2023-02-20T19:30:53.392Z,6.03
2023-02-20T19:33:10.132Z,6.00
2023-02-20T19:35:26.546Z,5.96
2023-02-20T19:37:43.307Z,5.91
2023-02-20T19:39:59.877Z,5.87
2023-02-20T19:42:16.864Z,5.89
2023-02-20T19:44:33.438Z,5.81
2023-02-20T19:46:49.932Z,5.76
2023-02-20T19:49:06.339Z,5.70
2023-02-20T19:51:23.051Z,5.65
2023-02-20T19:53:39.811Z,5.60
2023-02-20T19:55:56.314Z,5.57
2023-02-20T19:58:12.900Z,5.53
2023-02-20T20:00:29.232Z,5.51
2023-02-20T20:02:45.945Z,5.48
2023-02-20T20:05:02.304Z,5.42
2023-02-20T20:07:18.993Z,5.36
2023-02-20T20:09:37.502Z,5.30
2023-02-20T20:11:54.358Z,5.24
2023-02-20T20:14:11.116Z,5.19
2023-02-20T20:16:27.491Z,5.16
2023-02-20T20:18:44.032Z,5.15
2023-02-20T20:21:00.498Z,5.12
2023-02-20T20:23:17.140Z,5.03
2023-02-20T20:25:33.613Z,5.00
2023-02-20T20:27:50.293Z,5.01
2023-02-20T20:30:07.139Z,4.99
2023-02-20T20:32:24.010Z,4.91
2023-02-20T20:34:40.447Z,4.89
2023-02-20T20:36:56.974Z,4.86
2023-02-20T20:39:13.754Z,4.88
2023-02-20T20:41:39.397Z,4.85
2023-02-20T20:43:56.322Z,4.86
2023-02-20T20:46:13.013Z,4.85
2023-02-20T20:48:29.440Z,4.81
2023-02-20T20:50:45.888Z,4.75
2023-02-20T20:53:02.603Z,4.70
2023-02-20T20:55:19.078Z,4.65
2023-02-20T20:57:35.851Z,4.59
2023-02-20T20:59:52.547Z,4.55
2023-02-20T21:02:09.008Z,4.56
2023-02-20T21:04:25.442Z,4.54
2023-02-20T21:06:41.916Z,4.50
2023-02-20T21:08:59.011Z,4.45
2023-02-20T21:11:15.609Z,4.37
2023-02-20T21:13:32.154Z,4.31
2023-02-20T21:15:48.531Z,4.32
2023-02-20T21:18:04.950Z,4.31
2023-02-20T21:20:21.448Z,4.32
2023-02-20T21:22:38.058Z,4.29
2023-02-20T21:24:54.413Z,4.28
2023-02-20T21:27:11.146Z,4.28
2023-02-20T21:29:27.594Z,4.25
2023-02-20T21:31:44.144Z,4.19
2023-02-20T21:34:00.568Z,4.19
2023-02-20T21:36:16.944Z,4.15
2023-02-20T21:38:33.376Z,4.16
2023-02-20T21:40:49.684Z,4.14
2023-02-20T21:43:06.099Z,4.10
2023-02-20T21:45:22.431Z,4.08
2023-02-20T21:47:38.937Z,4.05
2023-02-20T21:49:55.587Z,4.04
2023-02-20T21:52:12.061Z,4.03
2023-02-20T21:54:28.580Z,4.04
2023-02-20T21:56:44.949Z,4.07
2023-02-20T21:59:01.668Z,4.03
2023-02-20T22:01:18.471Z,3.99
2023-02-20T22:03:34.953Z,3.96
2023-02-20T22:05:51.665Z,3.93
2023-02-20T22:08:08.067Z,3.90
2023-02-20T22:10:24.456Z,3.87
2023-02-20T22:12:41.229Z,3.83
2023-02-20T22:14:57.671Z,3.83
2023-02-20T22:17:14.387Z,3.78
2023-02-20T22:19:30.930Z,3.74
2023-02-20T22:21:47.352Z,3.75
2023-02-20T22:24:04.108Z,3.73
2023-02-20T22:26:20.607Z,3.74
2023-02-20T22:28:37.188Z,3.72
2023-02-20T22:30:54.596Z,3.69
2023-02-20T22:33:11.114Z,3.72
2023-02-20T22:35:27.657Z,3.75
2023-02-20T22:37:44.496Z,3.73
2023-02-20T22:40:00.867Z,3.76
2023-02-20T22:42:20.676Z,3.75
2023-02-20T22:44:39.671Z,3.75
2023-02-20T22:46:56.396Z,3.73
2023-02-20T22:49:13.190Z,3.66
2023-02-20T22:51:29.498Z,3.62
2023-02-20T22:53:45.816Z,3.61
2023-02-20T22:56:02.325Z,3.57
2023-02-20T22:58:19.164Z,3.58
2023-02-20T23:00:35.596Z,3.59
2023-02-20T23:02:51.944Z,3.60
2023-02-20T23:05:08.672Z,3.55
2023-02-20T23:07:25.086Z,3.53
2023-02-20T23:09:41.393Z,3.51
2023-02-20T23:11:57.761Z,3.49
2023-02-20T23:14:14.324Z,3.45
2023-02-20T23:16:30.821Z,3.42
2023-02-20T23:18:47.259Z,3.40
2023-02-20T23:21:03.961Z,3.38
2023-02-20T23:23:20.504Z,3.37
2023-02-20T23:25:37.218Z,3.35
2023-02-20T23:27:53.753Z,3.30
2023-02-20T23:30:10.155Z,3.32
2023-02-20T23:32:26.765Z,3.31
2023-02-20T23:34:43.569Z,3.32
2023-02-20T23:36:59.947Z,3.31
2023-02-20T23:39:16.693Z,3.34
2023-02-20T23:41:33.393Z,3.26
2023-02-20T23:43:50.143Z,3.19
2023-02-20T23:46:06.944Z,3.18
2023-02-20T23:48:23.660Z,3.14
2023-02-20T23:50:40.203Z,3.12
2023-02-20T23:52:56.550Z,3.12
2023-02-20T23:55:13.347Z,3.10
2023-02-20T23:57:29.833Z,3.16
2023-02-20T23:59:46.545Z,3.16
